createdAt,value
2018-12-18T00:01:56.025Z,6.30
2018-12-18T00:04:29.931Z,6.30
2018-12-18T00:07:02.663Z,6.40
2018-12-18T00:09:34.768Z,6.40
2018-12-18T00:12:05.060Z,6.40
2018-12-18T00:14:37.181Z,6.40
2018-12-18T00:17:12.650Z,6.30
2018-12-18T00:19:46.688Z,6.30
2018-12-18T00:22:21.533Z,6.30
2018-12-18T00:24:51.552Z,6.30
2018-12-18T00:27:23.713Z,6.20
2018-12-18T00:29:55.770Z,6.20
2018-12-18T00:32:27.666Z,6.10
2018-12-18T00:35:00.180Z,6.20
2018-12-18T00:37:32.513Z,6.10
2018-12-18T00:40:05.717Z,6.20
2018-12-18T00:42:37.996Z,6.10
2018-12-18T00:45:12.785Z,6.10
2018-12-18T00:47:43.264Z,6.10
2018-12-18T00:50:17.765Z,6.10
2018-12-18T00:52:52.566Z,6.10
2018-12-18T00:55:36.895Z,6.10
2018-12-18T00:58:07.168Z,6.20
2018-12-18T01:00:42.568Z,6.20
2018-12-18T01:03:14.494Z,6.20
2018-12-18T01:05:46.519Z,6.20
2018-12-18T01:08:20.656Z,6.20
2018-12-18T01:10:52.632Z,6.20
2018-12-18T01:13:24.577Z,6.10
2018-12-18T01:15:58.902Z,6.10
2018-12-18T01:18:30.351Z,6.10
2018-12-18T01:21:02.592Z,6.10
2018-12-18T01:23:34.726Z,6.10
2018-12-18T01:26:10.910Z,6.10
2018-12-18T01:28:44.975Z,6.20
2018-12-18T01:31:16.731Z,6.20
2018-12-18T01:33:49.019Z,6.10
2018-12-18T01:36:23.262Z,6.10
2018-12-18T01:38:57.255Z,6.10
2018-12-18T01:41:31.478Z,6.10
2018-12-18T01:44:05.467Z,6.10
2018-12-18T01:46:50.253Z,6.20
2018-12-18T01:49:24.807Z,6.10
2018-12-18T01:51:57.253Z,6.20
2018-12-18T01:54:29.615Z,6.20
2018-12-18T01:57:01.875Z,6.20
2018-12-18T01:59:33.702Z,6.10
2018-12-18T02:02:06.043Z,6.10
2018-12-18T02:04:38.023Z,6.10
2018-12-18T02:07:12.411Z,6.00
2018-12-18T02:09:46.598Z,6.10
2018-12-18T02:12:18.194Z,6.10
2018-12-18T02:14:56.718Z,6.20
2018-12-18T02:17:28.604Z,6.20
2018-12-18T02:19:58.847Z,6.20
2018-12-18T02:22:34.184Z,6.30
2018-12-18T02:25:06.625Z,6.30
2018-12-18T02:27:41.228Z,6.20
2018-12-18T02:30:15.348Z,6.20
2018-12-18T02:32:47.139Z,6.20
2018-12-18T02:35:19.260Z,6.20
2018-12-18T02:37:51.466Z,6.20
2018-12-18T02:40:23.389Z,6.30
2018-12-18T02:42:55.699Z,6.30
2018-12-18T02:45:27.689Z,6.30
2018-12-18T02:48:02.209Z,6.20
2018-12-18T02:50:31.925Z,6.20
2018-12-18T02:53:04.042Z,6.30
2018-12-18T02:55:36.108Z,6.30
2018-12-18T02:58:07.970Z,6.30
2018-12-18T03:00:40.271Z,6.30
2018-12-18T03:03:14.579Z,6.30
2018-12-18T03:05:49.314Z,6.30
2018-12-18T03:08:21.503Z,6.30
2018-12-18T03:10:53.538Z,6.30
2018-12-18T03:13:25.699Z,6.30
2018-12-18T03:15:57.991Z,6.30
2018-12-18T03:18:31.903Z,6.40
2018-12-18T03:21:03.637Z,6.40
2018-12-18T03:23:35.804Z,6.40
2018-12-18T03:26:08.162Z,6.40
2018-12-18T03:28:43.193Z,6.40
2018-12-18T03:31:15.156Z,6.40
2018-12-18T03:33:47.268Z,6.40
2018-12-18T03:36:19.216Z,6.40
2018-12-18T03:38:53.722Z,6.40
2018-12-18T03:41:27.975Z,6.40
2018-12-18T03:43:59.802Z,6.30
2018-12-18T03:46:34.301Z,6.40
2018-12-18T03:49:06.096Z,6.40
2018-12-18T03:51:40.542Z,6.40
2018-12-18T03:54:12.310Z,6.40
2018-12-18T03:56:42.295Z,6.40
2018-12-18T03:59:14.372Z,6.40
2018-12-18T04:01:46.469Z,6.40
2018-12-18T04:04:20.667Z,6.40
2018-12-18T04:06:54.580Z,6.40
2018-12-18T04:09:27.135Z,6.40
2018-12-18T04:12:04.801Z,6.40
2018-12-18T04:14:37.758Z,6.40
2018-12-18T04:17:09.458Z,6.40
2018-12-18T04:19:41.675Z,6.40
2018-12-18T04:22:13.737Z,6.40
2018-12-18T04:24:48.116Z,6.50
2018-12-18T04:27:22.158Z,6.40
2018-12-18T04:29:56.378Z,6.40
2018-12-18T04:32:28.803Z,6.40
2018-12-18T04:35:04.205Z,6.40
2018-12-18T04:37:42.256Z,6.50
2018-12-18T04:40:14.953Z,6.50
2018-12-18T04:42:46.954Z,6.50
2018-12-18T04:45:21.599Z,6.50
2018-12-18T04:47:56.631Z,6.50
2018-12-18T04:50:28.342Z,6.50
2018-12-18T04:52:58.457Z,6.50
2018-12-18T04:55:30.415Z,6.50
2018-12-18T04:58:02.567Z,6.50
2018-12-18T05:00:34.596Z,6.50
2018-12-18T05:03:10.953Z,6.50
2018-12-18T05:05:42.942Z,6.50
2018-12-18T05:08:15.142Z,6.50
2018-12-18T05:10:49.505Z,6.50
2018-12-18T05:13:21.248Z,6.50
2018-12-18T05:15:53.385Z,6.50
2018-12-18T05:18:25.556Z,6.50
2018-12-18T05:21:01.071Z,6.50
2018-12-18T05:23:35.067Z,6.50
2018-12-18T05:26:07.653Z,6.60
2018-12-18T05:28:40.206Z,6.60
2018-12-18T05:31:12.415Z,6.60
2018-12-18T05:33:42.611Z,6.60
2018-12-18T05:36:17.284Z,6.60
2018-12-18T05:38:51.212Z,6.60
2018-12-18T05:41:22.977Z,6.70
2018-12-18T05:43:55.131Z,6.80
2018-12-18T05:46:27.149Z,6.90
2018-12-18T05:49:01.669Z,7.10
2018-12-18T05:51:33.489Z,7.10
2018-12-18T05:56:36.089Z,7.10
2018-12-18T05:59:10.565Z,7.00
2018-12-18T06:01:43.096Z,7.00
2018-12-18T06:04:15.145Z,7.10
2018-12-18T06:06:50.111Z,7.10
2018-12-18T06:09:20.490Z,7.20
2018-12-18T06:11:50.530Z,7.20
2018-12-18T06:14:25.002Z,7.30
2018-12-18T06:16:56.341Z,7.20
2018-12-18T06:19:30.914Z,7.10
2018-12-18T06:22:02.995Z,7.10
2018-12-18T06:24:33.055Z,7.10
2018-12-18T06:27:07.572Z,7.10
2018-12-18T06:29:41.639Z,7.10
2018-12-18T06:32:12.374Z,7.10
2018-12-18T06:34:48.031Z,7.10
2018-12-18T06:37:18.404Z,7.00
2018-12-18T06:40:01.777Z,7.00
2018-12-18T06:42:32.398Z,7.00
2018-12-18T06:45:05.070Z,7.00
2018-12-18T06:47:41.188Z,6.90
2018-12-18T06:50:13.789Z,6.90
2018-12-18T06:52:45.853Z,7.00
2018-12-18T06:55:18.018Z,7.00
2018-12-18T06:57:52.491Z,7.00
2018-12-18T07:00:24.927Z,7.00
2018-12-18T07:02:56.960Z,7.00
2018-12-18T07:05:29.110Z,7.00
2018-12-18T07:08:01.270Z,7.00
2018-12-18T07:10:33.020Z,6.90
2018-12-18T07:13:05.171Z,6.90
2018-12-18T07:15:37.105Z,6.90
2018-12-18T07:18:09.226Z,6.90
2018-12-18T07:20:43.720Z,6.80
2018-12-18T07:23:17.699Z,6.80
2018-12-18T07:25:50.201Z,6.90
2018-12-18T07:28:22.125Z,6.90
2018-12-18T07:30:56.346Z,6.80
2018-12-18T07:33:32.238Z,6.90
2018-12-18T07:36:02.967Z,6.80
2018-12-18T07:38:32.601Z,6.80
2018-12-18T07:41:11.333Z,6.90
2018-12-18T07:43:42.995Z,6.90
2018-12-18T07:46:13.035Z,6.80
2018-12-18T07:48:45.079Z,6.80
2018-12-18T07:51:17.242Z,6.90
2018-12-18T07:53:49.410Z,6.90
2018-12-18T07:56:21.350Z,6.80
2018-12-18T07:58:51.507Z,6.90
2018-12-18T08:01:21.604Z,6.80
2018-12-18T08:03:53.426Z,6.80
2018-12-18T08:06:29.849Z,6.90
2018-12-18T08:09:02.343Z,6.90
2018-12-18T08:11:34.159Z,6.90
2018-12-18T08:14:04.380Z,6.90
2018-12-18T08:16:39.054Z,6.90
2018-12-18T08:19:11.110Z,6.90
2018-12-18T08:21:43.051Z,6.90
2018-12-18T08:24:15.055Z,6.90
2018-12-18T08:26:45.228Z,6.90
2018-12-18T08:29:17.546Z,7.00
2018-12-18T08:31:51.830Z,7.00
2018-12-18T08:34:25.762Z,6.90
2018-12-18T08:36:59.939Z,6.90
2018-12-18T08:39:31.796Z,6.90
2018-12-18T08:42:01.810Z,6.90
2018-12-18T08:44:32.101Z,6.90
2018-12-18T08:47:03.777Z,6.90
2018-12-18T08:49:38.363Z,6.90
2018-12-18T08:52:09.954Z,6.90
2018-12-18T08:54:44.517Z,6.90
2018-12-18T08:57:16.441Z,6.90
2018-12-18T08:59:50.759Z,6.90
2018-12-18T09:02:24.854Z,6.90
2018-12-18T09:04:56.597Z,6.90
2018-12-18T09:07:35.657Z,7.00
2018-12-18T09:10:10.322Z,7.00
2018-12-18T09:12:40.783Z,7.00
2018-12-18T09:15:20.344Z,7.00
2018-12-18T09:17:52.818Z,7.00
2018-12-18T09:20:27.182Z,7.00
2018-12-18T09:22:58.814Z,7.10
2018-12-18T09:25:30.767Z,7.10
2018-12-18T09:28:06.157Z,7.10
2018-12-18T09:30:42.513Z,7.10
2018-12-18T09:33:14.858Z,7.10
2018-12-18T09:35:49.682Z,7.00
2018-12-18T09:38:28.311Z,6.90
2018-12-18T09:41:03.891Z,6.90
2018-12-18T09:43:40.961Z,6.90
2018-12-18T09:46:12.582Z,6.90
2018-12-18T09:48:44.718Z,7.00
2018-12-18T09:51:15.016Z,6.90
2018-12-18T09:53:45.160Z,6.90
2018-12-18T09:56:19.464Z,6.90
2018-12-18T09:58:53.389Z,6.90
2018-12-18T10:01:25.011Z,6.90
2018-12-18T10:03:54.749Z,6.80
2018-12-18T10:06:27.048Z,6.80
2018-12-18T10:08:59.006Z,6.80
2018-12-18T10:11:31.057Z,6.70
2018-12-18T10:14:03.122Z,6.70
2018-12-18T10:16:37.548Z,6.80
2018-12-18T10:19:11.497Z,6.90
2018-12-18T10:21:45.565Z,6.90
2018-12-18T10:24:18.082Z,6.90
2018-12-18T10:26:48.075Z,6.90
2018-12-18T10:29:22.335Z,6.90
2018-12-18T10:31:53.986Z,6.90
2018-12-18T10:34:28.213Z,6.80
2018-12-18T10:37:00.030Z,6.90
2018-12-18T10:39:32.135Z,6.90
2018-12-18T10:42:04.203Z,6.90
2018-12-18T10:44:36.624Z,6.90
2018-12-18T10:47:08.881Z,6.90
2018-12-18T10:49:39.146Z,7.00
2018-12-18T10:52:13.580Z,7.00
2018-12-18T10:54:46.124Z,7.00
2018-12-18T10:57:18.301Z,7.00
2018-12-18T10:59:50.177Z,7.00
2018-12-18T11:02:22.291Z,7.00
2018-12-18T11:04:54.243Z,7.00
2018-12-18T11:07:26.166Z,7.00
2018-12-18T11:09:56.583Z,7.00
2018-12-18T11:12:36.250Z,7.00
2018-12-18T11:15:06.888Z,7.10
2018-12-18T11:17:38.499Z,7.10
2018-12-18T11:20:12.760Z,7.10
2018-12-18T11:22:45.341Z,7.10
2018-12-18T11:25:19.690Z,7.10
2018-12-18T11:27:51.422Z,7.20
2018-12-18T11:30:23.129Z,7.20
2018-12-18T11:32:57.333Z,7.20
2018-12-18T11:35:31.392Z,7.20
2018-12-18T11:38:03.326Z,7.30
2018-12-18T11:40:35.354Z,7.30
2018-12-18T11:43:07.408Z,7.40
2018-12-18T11:45:37.653Z,7.40
2018-12-18T11:48:10.807Z,7.40
2018-12-18T11:50:42.999Z,7.50
2018-12-18T11:53:15.109Z,7.50
2018-12-18T11:55:47.197Z,7.50
2018-12-18T11:58:25.706Z,7.50
2018-12-18T12:00:57.774Z,7.50
2018-12-18T12:03:28.084Z,7.50
2018-12-18T12:06:00.185Z,7.60
2018-12-18T12:08:32.113Z,7.60
2018-12-18T12:11:04.300Z,7.60
2018-12-18T12:13:38.754Z,7.60
2018-12-18T12:16:11.241Z,7.60
2018-12-18T12:18:41.638Z,7.70
2018-12-18T12:21:13.692Z,7.70
2018-12-18T12:23:50.255Z,7.70
2018-12-18T12:26:27.952Z,7.80
2018-12-18T12:29:14.381Z,7.80
2018-12-18T12:31:44.883Z,7.90
2018-12-18T12:34:19.310Z,7.90
2018-12-18T12:39:47.570Z,7.90
2018-12-18T12:42:17.188Z,8.00
2018-12-18T12:44:51.096Z,7.90
2018-12-18T12:47:27.164Z,8.00
2018-12-18T12:50:02.567Z,8.00
2018-12-18T12:52:32.650Z,8.00
2018-12-18T12:55:07.019Z,8.00
2018-12-18T12:57:37.290Z,8.00
2018-12-18T13:00:12.364Z,8.10
2018-12-18T13:02:48.721Z,8.00
2018-12-18T13:05:22.962Z,8.10
2018-12-18T13:07:56.230Z,8.10
2018-12-18T13:10:31.794Z,8.00
2018-12-18T13:13:04.472Z,8.10
2018-12-18T13:15:38.596Z,8.00
2018-12-18T13:18:10.400Z,8.10
2018-12-18T13:20:40.567Z,8.00
2018-12-18T13:23:13.036Z,8.00
2018-12-18T13:25:42.750Z,8.10
2018-12-18T13:28:12.813Z,8.00
2018-12-18T13:30:44.442Z,8.00
2018-12-18T13:33:16.374Z,8.00
2018-12-18T13:35:46.545Z,8.00
2018-12-18T13:38:18.864Z,8.00
2018-12-18T13:40:50.473Z,7.90
2018-12-18T13:43:21.222Z,8.00
2018-12-18T13:45:55.987Z,8.00
2018-12-18T13:48:26.255Z,8.00
2018-12-18T13:50:59.114Z,8.00
2018-12-18T13:53:30.800Z,8.00
2018-12-18T13:56:05.107Z,8.00
2018-12-18T13:58:36.557Z,8.00
2018-12-18T14:01:08.200Z,8.00
2018-12-18T14:03:38.493Z,8.00
2018-12-18T14:06:08.801Z,8.00
2018-12-18T14:08:41.894Z,8.00
2018-12-18T14:11:12.050Z,8.00
2018-12-18T14:13:46.399Z,8.00
2018-12-18T14:16:20.799Z,7.90
2018-12-18T14:18:53.406Z,7.90
2018-12-18T14:21:25.475Z,7.90
2018-12-18T14:23:55.795Z,7.90
2018-12-18T14:26:25.929Z,7.90
2018-12-18T14:28:58.156Z,7.80
2018-12-18T14:31:30.001Z,7.80
2018-12-18T14:34:01.936Z,7.80
2018-12-18T14:36:32.014Z,7.80
2018-12-18T14:39:06.178Z,7.80
2018-12-18T14:41:36.525Z,7.70
2018-12-18T14:44:11.249Z,7.70
2018-12-18T14:46:43.383Z,7.70
2018-12-18T14:49:13.460Z,7.60
2018-12-18T14:51:43.028Z,7.60
2018-12-18T14:54:15.494Z,7.60
2018-12-18T14:56:47.172Z,7.60
2018-12-18T14:59:17.817Z,7.50
2018-12-18T15:01:49.232Z,7.50
2018-12-18T15:04:21.733Z,7.40
2018-12-18T15:07:02.853Z,7.40
2018-12-18T15:09:31.163Z,7.40
2018-12-18T15:12:01.403Z,7.30
2018-12-18T15:14:33.685Z,7.30
2018-12-18T15:17:05.517Z,7.20
2018-12-18T15:19:37.537Z,7.20
2018-12-18T15:22:09.345Z,7.20
2018-12-18T15:24:41.669Z,7.10
2018-12-18T15:27:13.658Z,7.10
2018-12-18T15:29:45.803Z,7.00
2018-12-18T15:32:17.691Z,7.00
2018-12-18T15:34:49.762Z,7.00
2018-12-18T15:37:21.849Z,6.90
2018-12-18T15:39:52.017Z,6.90
2018-12-18T15:42:24.166Z,6.90
2018-12-18T15:44:54.388Z,6.90
2018-12-18T15:47:24.710Z,6.80
2018-12-18T15:49:56.871Z,6.80
2018-12-18T15:52:28.894Z,6.80
2018-12-18T15:55:03.438Z,6.80
2018-12-18T15:57:33.978Z,6.80
2018-12-18T16:00:06.833Z,6.70
2018-12-18T16:02:41.431Z,6.70
2018-12-18T16:05:13.121Z,6.60
2018-12-18T16:07:45.439Z,6.60
2018-12-18T16:10:17.535Z,6.70
2018-12-18T16:12:47.720Z,6.60
2018-12-18T16:15:17.874Z,6.60
2018-12-18T16:17:49.918Z,6.50
2018-12-18T16:20:20.160Z,6.50
2018-12-18T16:22:52.264Z,6.50
2018-12-18T16:25:24.565Z,6.40
2018-12-18T16:27:56.694Z,6.40
2018-12-18T16:30:28.677Z,6.40
2018-12-18T16:33:00.718Z,6.40
2018-12-18T16:35:35.936Z,6.50
2018-12-18T16:38:09.958Z,6.40
2018-12-18T16:40:42.781Z,6.40
2018-12-18T16:43:13.303Z,6.40
2018-12-18T16:45:45.512Z,6.40
2018-12-18T16:48:17.748Z,6.40
2018-12-18T16:50:51.971Z,6.30
2018-12-18T16:53:23.833Z,6.40
2018-12-18T16:55:59.430Z,6.30
2018-12-18T16:58:31.892Z,6.30
2018-12-18T17:01:10.646Z,6.20
2018-12-18T17:03:43.030Z,6.20
2018-12-18T17:06:17.259Z,6.20
2018-12-18T17:08:49.035Z,6.30
2018-12-18T17:11:19.512Z,6.20
2018-12-18T17:13:54.011Z,6.00
2018-12-18T17:16:26.828Z,6.00
2018-12-18T17:19:01.103Z,6.00
2018-12-18T17:21:31.592Z,5.90
2018-12-18T17:24:04.318Z,5.90
2018-12-18T17:26:36.774Z,5.90
2018-12-18T17:29:23.553Z,5.70
2018-12-18T17:31:55.026Z,5.80
2018-12-18T17:34:30.471Z,5.70
2018-12-18T17:37:04.738Z,5.80
2018-12-18T17:39:37.243Z,5.80
2018-12-18T17:42:09.424Z,5.90
2018-12-18T17:44:43.932Z,5.90
2018-12-18T17:47:18.963Z,5.70
2018-12-18T17:49:49.357Z,5.60
2018-12-18T17:52:21.404Z,5.60
2018-12-18T17:54:53.500Z,5.60
2018-12-18T17:57:25.488Z,5.60
2018-12-18T18:00:00.261Z,5.50
2018-12-18T18:02:30.982Z,5.50
2018-12-18T18:05:03.188Z,5.60
2018-12-18T18:07:35.451Z,5.60
2018-12-18T18:10:09.433Z,5.60
2018-12-18T18:12:43.549Z,5.60
2018-12-18T18:15:17.899Z,5.60
2018-12-18T18:17:50.433Z,5.50
2018-12-18T18:20:23.084Z,5.50
2018-12-18T18:22:55.403Z,5.40
2018-12-18T18:25:27.691Z,5.50
2018-12-18T18:28:02.128Z,5.50
2018-12-18T18:30:34.208Z,5.50
2018-12-18T18:33:06.102Z,5.50
2018-12-18T18:35:38.335Z,5.50
2018-12-18T18:38:10.745Z,5.40
2018-12-18T18:40:43.632Z,5.40
2018-12-18T18:43:22.208Z,5.40
2018-12-18T18:45:55.275Z,5.30
2018-12-18T18:48:27.685Z,5.30
2018-12-18T18:51:02.155Z,5.30
2018-12-18T18:53:36.708Z,5.30
2018-12-18T18:56:09.417Z,5.30
2018-12-18T18:58:43.642Z,5.20
2018-12-18T19:01:14.099Z,5.20
2018-12-18T19:03:46.442Z,5.20
2018-12-18T19:06:19.255Z,5.10
2018-12-18T19:09:03.858Z,5.10
2018-12-18T19:11:36.523Z,5.10
2018-12-18T19:14:08.464Z,5.10
2018-12-18T19:16:42.760Z,5.10
2018-12-18T19:19:14.122Z,5.10
2018-12-18T19:21:46.170Z,5.10
2018-12-18T19:24:20.292Z,5.10
2018-12-18T19:27:02.919Z,5.00
2018-12-18T19:29:37.172Z,5.00
2018-12-18T19:32:17.837Z,5.00
2018-12-18T19:34:52.999Z,5.00
2018-12-18T19:37:25.559Z,5.00
2018-12-18T19:39:57.887Z,4.90
2018-12-18T19:42:30.409Z,4.90
2018-12-18T19:45:03.401Z,4.80
2018-12-18T19:47:35.338Z,4.90
2018-12-18T19:50:07.605Z,4.80
2018-12-18T19:52:39.644Z,4.80
2018-12-18T19:55:12.865Z,4.70
2018-12-18T19:57:43.725Z,4.70
2018-12-18T20:00:16.712Z,4.60
2018-12-18T20:02:47.688Z,4.60
2018-12-18T20:05:21.868Z,4.60
2018-12-18T20:07:54.717Z,4.60
2018-12-18T20:10:27.447Z,4.60
2018-12-18T20:13:05.614Z,4.60
2018-12-18T20:15:41.043Z,4.60
2018-12-18T20:18:14.057Z,4.60
2018-12-18T20:20:46.254Z,4.60
2018-12-18T20:23:20.746Z,4.60
2018-12-18T20:25:56.626Z,4.50
2018-12-18T20:28:31.140Z,4.50
2018-12-18T20:31:06.018Z,4.50
2018-12-18T20:33:38.886Z,4.50
2018-12-18T20:36:13.082Z,4.40
2018-12-18T20:38:48.272Z,4.40
2018-12-18T20:41:20.173Z,4.30
2018-12-18T20:43:52.817Z,4.40
2018-12-18T20:46:25.190Z,4.30
2018-12-18T20:49:00.151Z,4.30
2018-12-18T20:51:31.076Z,4.30
2018-12-18T20:54:06.617Z,4.30
2018-12-18T20:56:40.639Z,4.30
2018-12-18T20:59:14.895Z,4.30
2018-12-18T21:01:45.708Z,4.30
2018-12-18T21:04:20.229Z,4.40
2018-12-18T21:06:52.841Z,4.30
2018-12-18T21:09:23.629Z,4.30
2018-12-18T21:11:55.436Z,4.30
2018-12-18T21:14:27.696Z,4.20
2018-12-18T21:16:59.761Z,4.30
2018-12-18T21:19:38.346Z,4.30
2018-12-18T21:23:40.692Z,4.20
2018-12-18T21:26:15.648Z,4.20
2018-12-18T21:28:47.612Z,4.20
2018-12-18T21:31:21.834Z,4.20
2018-12-18T21:33:54.742Z,4.20
2018-12-18T21:36:28.835Z,4.30
2018-12-18T21:41:54.599Z,4.20
2018-12-18T21:44:28.597Z,4.20
2018-12-18T21:46:59.475Z,4.20
2018-12-18T21:49:31.615Z,4.30
2018-12-18T21:52:02.537Z,4.30
2018-12-18T21:54:36.573Z,4.30
2018-12-18T21:57:07.395Z,4.30
2018-12-18T21:59:39.434Z,4.30
2018-12-18T22:02:11.901Z,4.20
2018-12-18T22:04:46.064Z,4.20
2018-12-18T22:07:17.925Z,4.30
2018-12-18T22:09:52.269Z,4.20
2018-12-18T22:12:24.747Z,4.20
2018-12-18T22:14:56.975Z,4.20
2018-12-18T22:17:33.862Z,4.20
2018-12-18T22:20:08.718Z,4.10
2018-12-18T22:22:40.608Z,4.00
2018-12-18T22:25:13.510Z,3.90
2018-12-18T22:27:46.595Z,3.90
2018-12-18T22:30:21.669Z,3.90
2018-12-18T22:32:53.893Z,3.80
2018-12-18T22:35:25.835Z,3.80
2018-12-18T22:37:58.299Z,3.80
2018-12-18T22:40:30.333Z,3.80
2018-12-18T22:43:08.802Z,3.70
2018-12-18T22:45:41.277Z,3.80
2018-12-18T22:48:13.414Z,3.90
2018-12-18T22:50:47.662Z,3.90
2018-12-18T22:53:22.676Z,3.80
2018-12-18T22:55:57.718Z,3.90
2018-12-18T22:58:33.482Z,3.90
2018-12-18T23:04:21.523Z,3.90
2018-12-18T23:07:00.191Z,3.90
2018-12-18T23:09:34.661Z,3.90
2018-12-18T23:12:07.227Z,3.80
2018-12-18T23:14:39.758Z,3.80
2018-12-18T23:17:19.143Z,3.70
2018-12-18T23:19:53.717Z,3.80
2018-12-18T23:22:26.933Z,3.80
2018-12-18T23:25:00.592Z,3.60
2018-12-18T23:27:32.638Z,3.70
2018-12-18T23:30:07.311Z,3.70
2018-12-18T23:32:39.992Z,3.70
2018-12-18T23:35:14.129Z,3.80
2018-12-18T23:37:46.749Z,3.80
2018-12-18T23:40:21.000Z,3.80
2018-12-18T23:42:51.222Z,3.80
2018-12-18T23:45:21.930Z,3.80
2018-12-18T23:47:56.017Z,3.80
2018-12-18T23:50:28.284Z,3.80
2018-12-18T23:53:02.247Z,3.80
2018-12-18T23:55:34.020Z,3.70
2018-12-18T23:58:06.232Z,3.80
